createdAt,value
2023-02-05T00:01:57.501Z,85.80
2023-02-05T00:04:24.775Z,85.70
2023-02-05T00:06:52.151Z,85.80
2023-02-05T00:09:19.413Z,85.70
2023-02-05T00:11:46.704Z,85.50
2023-02-05T00:14:13.900Z,85.30
2023-02-05T00:17:05.092Z,85.50
2023-02-05T00:19:32.312Z,85.60
2023-02-05T00:21:59.513Z,85.70
2023-02-05T00:24:26.804Z,85.80
2023-02-05T00:26:54.016Z,86.00
2023-02-05T00:29:21.795Z,85.80
2023-02-05T00:31:49.678Z,85.70
2023-02-05T00:34:17.264Z,85.70
2023-02-05T00:36:44.769Z,85.80
2023-02-05T00:39:16.021Z,85.40
2023-02-05T00:41:43.216Z,85.60
2023-02-05T00:44:10.453Z,85.40
2023-02-05T00:46:37.785Z,85.40
2023-02-05T00:49:04.999Z,85.30
2023-02-05T00:51:32.346Z,85.50
2023-02-05T00:53:59.548Z,85.70
2023-02-05T00:56:26.773Z,85.70
2023-02-05T00:58:54.428Z,85.90
2023-02-05T01:01:24.228Z,85.60
2023-02-05T01:03:51.503Z,85.60
2023-02-05T01:06:18.721Z,85.40
2023-02-05T01:08:46.061Z,85.50
2023-02-05T01:11:14.977Z,85.30
2023-02-05T01:13:42.478Z,85.30
2023-02-05T01:16:10.551Z,85.40
2023-02-05T01:18:37.866Z,85.80
2023-02-05T01:21:05.313Z,85.90
2023-02-05T01:23:32.568Z,85.90
2023-02-05T01:26:00.134Z,86.00
2023-02-05T01:28:27.377Z,85.90
2023-02-05T01:30:54.739Z,85.70
2023-02-05T01:33:22.010Z,85.30
2023-02-05T01:35:49.233Z,84.90
2023-02-05T01:38:16.499Z,84.80
2023-02-05T01:40:43.935Z,84.70
2023-02-05T01:43:16.033Z,84.60
2023-02-05T01:46:06.567Z,84.30
2023-02-05T01:48:41.836Z,84.50
2023-02-05T01:51:13.681Z,84.40
2023-02-05T01:53:43.428Z,84.30
2023-02-05T01:56:16.125Z,84.50
2023-02-05T01:58:54.463Z,84.40
2023-02-05T02:01:24.144Z,84.80
2023-02-05T02:03:53.804Z,85.00
2023-02-05T02:06:21.057Z,85.00
2023-02-05T02:08:48.286Z,85.00
2023-02-05T02:11:19.815Z,85.10
2023-02-05T02:13:50.608Z,85.20
2023-02-05T02:16:18.113Z,85.20
2023-02-05T02:18:46.085Z,85.20
2023-02-05T02:21:32.495Z,85.10
2023-02-05T02:24:08.466Z,84.80
2023-02-05T02:26:47.889Z,84.70
2023-02-05T02:29:28.427Z,84.90
2023-02-05T02:32:04.770Z,84.90
2023-02-05T02:34:43.235Z,84.70
2023-02-05T02:37:43.549Z,84.90
2023-02-05T02:40:32.605Z,84.90
2023-02-05T02:43:11.886Z,85.00
2023-02-05T02:45:51.157Z,85.00
2023-02-05T02:48:23.543Z,85.00
2023-02-05T02:51:47.053Z,85.30
2023-02-05T02:54:17.515Z,85.30
2023-02-05T02:56:47.328Z,85.20
2023-02-05T02:59:18.312Z,85.10
2023-02-05T03:01:54.039Z,85.20
2023-02-05T03:04:28.002Z,85.40
2023-02-05T03:07:08.735Z,85.60
2023-02-05T03:09:47.121Z,85.70
2023-02-05T03:12:14.731Z,85.40
2023-02-05T03:14:42.213Z,85.60
2023-02-05T03:17:09.659Z,85.70
2023-02-05T03:19:37.013Z,85.90
2023-02-05T03:22:06.084Z,85.90
2023-02-05T03:24:33.526Z,86.00
2023-02-05T03:27:00.922Z,86.10
2023-02-05T03:29:32.725Z,86.00
2023-02-05T03:32:26.504Z,86.00
2023-02-05T03:35:18.946Z,86.10
2023-02-05T03:38:00.483Z,86.00
2023-02-05T03:40:55.371Z,86.10
2023-02-05T03:43:47.876Z,86.20
2023-02-05T03:46:28.483Z,86.20
2023-02-05T03:49:04.288Z,86.30
2023-02-05T03:51:47.588Z,86.00
2023-02-05T03:54:43.768Z,85.80
2023-02-05T03:57:29.976Z,86.00
2023-02-05T03:59:59.539Z,85.90
2023-02-05T04:02:29.650Z,85.80
2023-02-05T04:04:57.610Z,85.70
2023-02-05T04:07:25.151Z,86.20
2023-02-05T04:09:52.356Z,86.50
2023-02-05T04:12:19.636Z,86.50
2023-02-05T04:14:48.231Z,86.20
2023-02-05T04:17:15.556Z,86.20
2023-02-05T04:19:43.347Z,86.10
2023-02-05T04:22:12.113Z,86.10
2023-02-05T04:24:43.012Z,86.30
2023-02-05T04:27:10.673Z,86.60
2023-02-05T04:29:38.444Z,86.70
2023-02-05T04:32:06.610Z,86.40
2023-02-05T04:34:33.814Z,86.30
2023-02-05T04:37:02.639Z,86.10
2023-02-05T04:39:31.230Z,86.30
2023-02-05T04:41:58.598Z,86.20
2023-02-05T04:44:25.805Z,86.20
2023-02-05T04:46:53.038Z,86.00
2023-02-05T04:49:20.392Z,85.90
2023-02-05T04:51:47.618Z,85.80
2023-02-05T04:54:14.836Z,86.30
2023-02-05T04:56:42.072Z,86.20
2023-02-05T04:59:09.401Z,86.20
2023-02-05T05:01:36.748Z,86.00
2023-02-05T05:04:03.952Z,86.00
2023-02-05T05:06:31.153Z,86.30
2023-02-05T05:08:58.382Z,86.40
2023-02-05T05:11:25.909Z,86.80
2023-02-05T05:13:53.220Z,86.90
2023-02-05T05:16:20.651Z,86.90
2023-02-05T05:18:52.107Z,86.80
2023-02-05T05:21:19.375Z,87.10
2023-02-05T05:23:46.581Z,87.20
2023-02-05T05:26:13.920Z,87.20
2023-02-05T05:28:41.376Z,87.10
2023-02-05T05:31:12.837Z,86.70
2023-02-05T05:33:40.304Z,86.70
2023-02-05T05:36:08.905Z,86.80
2023-02-05T05:38:36.139Z,86.80
2023-02-05T05:41:27.417Z,86.80
2023-02-05T05:44:04.824Z,86.70
2023-02-05T05:46:32.744Z,86.90
2023-02-05T05:49:02.634Z,86.80
2023-02-05T05:51:59.225Z,87.00
2023-02-05T05:54:26.438Z,87.30
2023-02-05T05:56:53.747Z,87.30
2023-02-05T05:59:20.995Z,87.30
2023-02-05T06:01:48.275Z,87.20
2023-02-05T06:04:15.609Z,87.10
2023-02-05T06:06:42.889Z,86.80
2023-02-05T06:09:10.476Z,86.80
2023-02-05T06:11:37.785Z,86.70
2023-02-05T06:14:05.247Z,86.40
2023-02-05T06:16:32.628Z,86.60
2023-02-05T06:19:00.112Z,86.60
2023-02-05T06:21:27.387Z,86.80
2023-02-05T06:23:54.635Z,86.80
2023-02-05T06:26:21.972Z,86.90
2023-02-05T06:28:49.238Z,86.90
2023-02-05T06:31:17.545Z,86.60
2023-02-05T06:33:45.096Z,86.70
2023-02-05T06:36:12.318Z,86.70
2023-02-05T06:39:05.449Z,86.60
2023-02-05T06:41:32.778Z,86.80
2023-02-05T06:44:03.889Z,86.90
2023-02-05T06:46:31.320Z,86.90
2023-02-05T06:48:58.998Z,86.70
2023-02-05T06:51:29.589Z,86.70
2023-02-05T06:54:00.970Z,86.70
2023-02-05T06:56:29.786Z,86.60
2023-02-05T06:58:57.350Z,86.60
2023-02-05T07:01:24.695Z,86.70
2023-02-05T07:04:18.508Z,86.80
2023-02-05T07:06:45.714Z,86.50
2023-02-05T07:09:13.015Z,86.50
2023-02-05T07:11:43.470Z,86.70
2023-02-05T07:14:13.292Z,86.90
2023-02-05T07:16:40.606Z,87.00
2023-02-05T07:19:07.817Z,87.10
2023-02-05T07:21:36.028Z,87.10
2023-02-05T07:24:03.395Z,87.20
2023-02-05T07:26:30.601Z,87.20
2023-02-05T07:28:57.792Z,87.10
2023-02-05T07:31:25.081Z,87.20
2023-02-05T07:33:52.376Z,87.10
2023-02-05T07:36:20.079Z,87.10
2023-02-05T07:46:53.412Z,87.10
2023-02-05T07:49:20.631Z,87.20
2023-02-05T07:51:48.692Z,87.10
2023-02-05T07:54:16.997Z,87.20
2023-02-05T07:56:44.768Z,86.90
2023-02-05T07:59:12.197Z,86.80
2023-02-05T08:01:39.524Z,86.80
2023-02-05T08:04:06.767Z,87.00
2023-02-05T08:06:34.815Z,86.90
2023-02-05T08:09:02.469Z,87.10
2023-02-05T08:11:32.843Z,86.90
2023-02-05T08:14:01.774Z,86.40
2023-02-05T08:16:31.159Z,86.50
2023-02-05T08:18:58.428Z,86.80
2023-02-05T08:21:25.698Z,86.60
2023-02-05T08:23:52.953Z,86.70
2023-02-05T08:26:20.257Z,86.80
2023-02-05T08:28:47.623Z,86.60
2023-02-05T08:31:17.628Z,86.50
2023-02-05T08:33:46.731Z,86.60
2023-02-05T08:36:15.243Z,86.50
2023-02-05T08:38:42.460Z,86.30
2023-02-05T08:41:14.805Z,86.30
2023-02-05T08:43:47.577Z,86.00
2023-02-05T08:46:18.682Z,85.80
2023-02-05T08:48:47.308Z,85.80
2023-02-05T08:51:15.566Z,86.10
2023-02-05T08:53:43.287Z,86.10
2023-02-05T08:56:12.439Z,86.10
2023-02-05T08:58:40.553Z,86.00
2023-02-05T09:01:10.723Z,85.80
2023-02-05T09:03:38.228Z,85.60
2023-02-05T09:06:08.130Z,85.30
2023-02-05T09:08:36.824Z,85.30
2023-02-05T09:11:05.105Z,85.20
2023-02-05T09:13:32.783Z,84.90
2023-02-05T09:16:05.107Z,84.90
2023-02-05T09:18:36.508Z,85.00
2023-02-05T09:21:56.122Z,85.00
2023-02-05T09:24:23.562Z,84.50
2023-02-05T09:26:50.826Z,84.50
2023-02-05T09:29:18.102Z,84.50
2023-02-05T09:31:45.450Z,84.20
2023-02-05T09:34:13.498Z,83.90
2023-02-05T09:36:41.558Z,83.90
2023-02-05T09:39:20.600Z,84.00
2023-02-05T09:42:01.745Z,84.10
2023-02-05T09:44:35.604Z,83.70
2023-02-05T09:47:12.136Z,83.80
2023-02-05T09:49:52.463Z,83.90
2023-02-05T09:52:38.249Z,84.20
2023-02-05T09:55:37.342Z,83.70
2023-02-05T09:58:27.155Z,83.70
2023-02-05T10:01:04.142Z,83.80
2023-02-05T10:03:43.203Z,83.30
2023-02-05T10:06:16.649Z,82.80
2023-02-05T10:09:07.170Z,83.50
2023-02-05T10:12:01.289Z,82.50
2023-02-05T10:14:54.710Z,82.40
2023-02-05T10:17:37.491Z,82.40
2023-02-05T10:20:39.002Z,82.40
2023-02-05T10:23:21.112Z,82.30
2023-02-05T10:26:04.414Z,82.00
2023-02-05T10:28:54.444Z,82.20
2023-02-05T10:31:50.882Z,82.00
2023-02-05T10:34:24.742Z,82.10
2023-02-05T10:36:53.898Z,82.30
2023-02-05T10:39:25.673Z,82.10
2023-02-05T10:42:01.698Z,81.70
2023-02-05T10:44:41.250Z,81.90
2023-02-05T10:47:14.777Z,82.00
2023-02-05T10:49:51.957Z,81.70
2023-02-05T10:52:19.909Z,81.80
2023-02-05T10:54:47.956Z,80.90
2023-02-05T10:57:18.753Z,80.90
2023-02-05T11:00:14.980Z,81.00
2023-02-05T11:02:48.369Z,80.70
2023-02-05T11:05:30.589Z,81.10
2023-02-05T11:07:58.642Z,80.60
2023-02-05T11:10:35.545Z,80.10
2023-02-05T11:13:18.797Z,80.60
2023-02-05T11:16:03.616Z,79.20
2023-02-05T11:18:38.898Z,79.50
2023-02-05T11:21:09.449Z,78.80
2023-02-05T11:23:41.440Z,79.20
2023-02-05T11:26:23.369Z,78.20
2023-02-05T11:28:51.408Z,77.60
2023-02-05T11:31:19.806Z,78.40
2023-02-05T11:33:49.297Z,78.60
2023-02-05T11:36:23.986Z,78.20
2023-02-05T11:38:54.530Z,78.70
2023-02-05T11:41:31.226Z,77.60
2023-02-05T11:44:03.351Z,77.90
2023-02-05T11:46:36.456Z,77.50
2023-02-05T11:49:05.116Z,77.20
2023-02-05T11:51:44.663Z,77.20
2023-02-05T11:54:32.462Z,76.80
2023-02-05T11:57:18.629Z,77.30
2023-02-05T12:00:17.603Z,77.90
2023-02-05T12:02:51.437Z,77.60
2023-02-05T12:05:31.137Z,77.70
2023-02-05T12:08:26.796Z,77.50
2023-02-05T12:11:28.259Z,78.00
2023-02-05T12:14:20.249Z,77.80
2023-02-05T12:17:16.902Z,77.90
2023-02-05T12:20:04.183Z,77.50
2023-02-05T12:22:48.010Z,77.00
2023-02-05T12:25:36.699Z,76.10
2023-02-05T12:28:15.646Z,74.60
2023-02-05T12:31:01.288Z,75.70
2023-02-05T12:33:52.732Z,74.80
2023-02-05T12:36:44.305Z,74.70
2023-02-05T12:39:30.052Z,73.20
2023-02-05T12:42:24.135Z,71.60
2023-02-05T12:45:06.602Z,71.10
2023-02-05T12:47:44.598Z,69.90
2023-02-05T12:50:31.914Z,70.10
2023-02-05T12:53:17.631Z,68.70
2023-02-05T12:56:07.069Z,67.80
2023-02-05T12:58:41.612Z,68.70
2023-02-05T13:01:27.779Z,68.90
2023-02-05T13:04:01.370Z,67.30
2023-02-05T13:06:37.762Z,69.80
2023-02-05T13:09:29.465Z,71.20
2023-02-05T13:12:02.381Z,70.70
2023-02-05T13:14:36.917Z,69.70
2023-02-05T13:17:17.707Z,68.50
2023-02-05T13:20:07.605Z,67.00
2023-02-05T13:22:59.902Z,68.20
2023-02-05T13:25:38.704Z,67.40
2023-02-05T13:28:41.912Z,68.50
2023-02-05T13:31:25.554Z,67.90
2023-02-05T13:33:56.508Z,68.20
2023-02-05T13:36:33.298Z,68.60
2023-02-05T13:39:34.863Z,68.60
2023-02-05T13:42:44.315Z,66.20
2023-02-05T13:45:37.877Z,64.40
2023-02-05T13:48:27.100Z,63.30
2023-02-05T13:51:17.252Z,63.20
2023-02-05T13:54:18.737Z,61.10
2023-02-05T13:56:51.787Z,57.30
2023-02-05T13:59:29.072Z,55.00
2023-02-05T14:02:00.473Z,53.30
2023-02-05T14:04:48.866Z,51.70
2023-02-05T14:07:30.251Z,51.40
2023-02-05T14:10:01.100Z,49.40
2023-02-05T14:12:33.460Z,47.30
2023-02-05T14:15:17.187Z,45.40
2023-02-05T14:17:52.013Z,46.50
2023-02-05T14:20:31.261Z,46.20
2023-02-05T14:23:03.157Z,45.10
2023-02-05T14:25:39.631Z,46.40
2023-02-05T14:28:12.299Z,45.60
2023-02-05T14:30:46.648Z,43.70
2023-02-05T14:33:31.621Z,42.20
2023-02-05T14:36:24.614Z,41.20
2023-02-05T14:38:57.432Z,41.20
2023-02-05T14:41:31.113Z,41.00
2023-02-05T14:44:05.866Z,39.90
2023-02-05T14:46:41.489Z,38.80
2023-02-05T14:49:42.734Z,39.10
2023-02-05T14:52:20.797Z,39.90
2023-02-05T14:54:57.733Z,40.90
2023-02-05T14:57:50.519Z,42.10
2023-02-05T15:00:32.582Z,42.50
2023-02-05T15:03:05.848Z,43.90
2023-02-05T15:05:42.623Z,42.90
2023-02-05T15:08:24.111Z,44.40
2023-02-05T15:11:12.338Z,44.60
2023-02-05T15:13:41.228Z,45.00
2023-02-05T15:16:11.986Z,43.20
2023-02-05T15:18:43.626Z,42.10
2023-02-05T15:21:40.007Z,43.00
2023-02-05T15:24:29.952Z,43.40
2023-02-05T15:27:05.953Z,43.70
2023-02-05T15:29:48.576Z,45.20
2023-02-05T15:32:25.862Z,47.30
2023-02-05T15:34:57.718Z,49.60
2023-02-05T15:37:30.958Z,53.00
2023-02-05T15:40:08.571Z,55.90
2023-02-05T15:42:42.576Z,58.10
2023-02-05T15:45:45.249Z,60.70
2023-02-05T15:48:18.798Z,62.30
2023-02-05T15:51:28.689Z,65.00
2023-02-05T15:53:58.017Z,65.90
2023-02-05T15:56:36.536Z,66.50
2023-02-05T15:59:17.257Z,67.30
2023-02-05T16:01:49.525Z,67.90
2023-02-05T16:04:37.854Z,68.40
2023-02-05T16:07:22.018Z,68.80
2023-02-05T16:09:54.036Z,69.60
2023-02-05T16:12:22.371Z,69.90
2023-02-05T16:15:06.158Z,70.10
2023-02-05T16:17:40.149Z,70.10
2023-02-05T16:20:28.916Z,71.10
2023-02-05T16:23:36.882Z,71.90
2023-02-05T16:26:11.129Z,72.20
2023-02-05T16:28:48.487Z,73.80
2023-02-05T16:31:20.500Z,74.80
2023-02-05T16:33:58.928Z,75.50
2023-02-05T16:36:32.019Z,75.70
2023-02-05T16:39:03.068Z,75.70
2023-02-05T16:41:38.370Z,75.20
2023-02-05T16:44:07.641Z,76.10
2023-02-05T16:46:36.266Z,76.50
2023-02-05T16:49:23.635Z,76.90
2023-02-05T16:51:50.794Z,77.50
2023-02-05T16:54:18.047Z,77.30
2023-02-05T16:57:02.471Z,77.10
2023-02-05T16:59:33.966Z,77.50
2023-02-05T17:02:03.468Z,76.90
2023-02-05T17:04:37.562Z,76.40
2023-02-05T17:07:15.728Z,76.20
2023-02-05T17:09:43.087Z,76.20
2023-02-05T17:12:19.762Z,76.80
2023-02-05T17:14:56.986Z,76.50
2023-02-05T17:17:26.079Z,77.30
2023-02-05T17:20:15.382Z,77.30
2023-02-05T17:23:03.077Z,77.50
2023-02-05T17:25:36.683Z,78.00
2023-02-05T17:28:06.273Z,78.30
2023-02-05T17:30:34.898Z,78.30
2023-02-05T17:33:08.967Z,78.00
2023-02-05T17:35:36.572Z,78.20
2023-02-05T17:38:03.989Z,78.80
2023-02-05T17:40:32.614Z,78.40
2023-02-05T17:43:00.556Z,78.50
2023-02-05T17:45:32.455Z,78.40
2023-02-05T17:48:00.128Z,79.10
2023-02-05T17:50:27.942Z,79.50
2023-02-05T17:52:55.852Z,79.70
2023-02-05T17:55:23.895Z,79.60
2023-02-05T17:57:51.536Z,78.90
2023-02-05T18:00:25.160Z,79.50
2023-02-05T18:02:53.331Z,79.60
2023-02-05T18:05:21.095Z,79.50
2023-02-05T18:07:56.498Z,79.10
2023-02-05T18:10:27.701Z,79.00
2023-02-05T18:12:58.306Z,79.30
2023-02-05T18:15:34.432Z,79.50
2023-02-05T18:18:07.056Z,79.50
2023-02-05T18:20:38.862Z,79.50
2023-02-05T18:23:18.659Z,80.10
2023-02-05T18:25:53.570Z,80.30
2023-02-05T18:28:22.403Z,80.10
2023-02-05T18:31:00.765Z,79.50
2023-02-05T18:33:28.298Z,79.50
2023-02-05T18:36:04.308Z,79.70
2023-02-05T18:38:32.047Z,80.60
2023-02-05T18:41:18.186Z,80.20
2023-02-05T18:43:45.601Z,80.30
2023-02-05T18:46:16.149Z,80.50
2023-02-05T18:48:45.664Z,79.90
2023-02-05T18:51:15.137Z,79.60
2023-02-05T18:53:43.551Z,79.20
2023-02-05T18:56:17.373Z,79.80
2023-02-05T18:58:50.543Z,80.30
2023-02-05T19:01:19.419Z,80.40
2023-02-05T19:03:47.532Z,80.00
2023-02-05T19:06:17.074Z,80.60
2023-02-05T19:08:45.121Z,81.20
2023-02-05T19:11:20.868Z,81.70
2023-02-05T19:13:54.389Z,82.00
2023-02-05T19:16:21.966Z,82.00
2023-02-05T19:18:49.482Z,81.80
2023-02-05T19:21:20.252Z,81.60
2023-02-05T19:23:54.457Z,81.10
2023-02-05T19:26:26.526Z,80.90
2023-02-05T19:28:59.410Z,80.90
2023-02-05T19:31:30.082Z,81.10
2023-02-05T19:33:57.844Z,81.90
2023-02-05T19:36:26.134Z,82.10
2023-02-05T19:38:54.213Z,82.30
2023-02-05T19:41:26.416Z,81.90
2023-02-05T19:43:56.640Z,81.30
2023-02-05T19:46:26.874Z,81.30
2023-02-05T19:48:56.240Z,81.40
2023-02-05T19:51:24.061Z,81.10
2023-02-05T19:53:51.742Z,80.90
2023-02-05T19:56:21.780Z,80.80
2023-02-05T19:58:52.121Z,80.70
2023-02-05T20:01:25.182Z,80.60
2023-02-05T20:03:54.777Z,80.60
2023-02-05T20:06:24.443Z,80.60
2023-02-05T20:08:52.176Z,80.60
2023-02-05T20:11:22.798Z,80.60
2023-02-05T20:13:51.054Z,80.70
2023-02-05T20:16:21.368Z,80.80
2023-02-05T20:18:56.361Z,80.50
2023-02-05T20:21:24.489Z,80.60
2023-02-05T20:23:54.217Z,80.90
2023-02-05T20:26:22.321Z,81.30
2023-02-05T20:29:11.414Z,80.80
2023-02-05T20:31:42.825Z,80.30
2023-02-05T20:34:20.307Z,80.10
2023-02-05T20:36:50.439Z,80.10
2023-02-05T20:39:19.122Z,80.10
2023-02-05T20:41:48.756Z,80.10
2023-02-05T20:44:16.861Z,80.40
2023-02-05T20:46:44.680Z,80.30
2023-02-05T20:49:12.285Z,80.50
2023-02-05T20:51:39.583Z,80.70
2023-02-05T20:54:07.324Z,81.20
2023-02-05T20:56:35.347Z,81.40
2023-02-05T20:59:05.048Z,81.40
2023-02-05T21:01:35.056Z,81.20
2023-02-05T21:04:04.142Z,80.90
2023-02-05T21:06:34.790Z,80.60
2023-02-05T21:09:03.242Z,80.30
2023-02-05T21:11:30.621Z,80.30
2023-02-05T21:13:58.852Z,80.80
2023-02-05T21:16:27.735Z,80.90
2023-02-05T21:18:55.709Z,81.80
2023-02-05T21:21:28.485Z,82.20
2023-02-05T21:23:57.687Z,82.20
2023-02-05T21:26:32.710Z,81.70
2023-02-05T21:29:03.142Z,81.40
2023-02-05T21:31:35.207Z,81.40
2023-02-05T21:34:04.759Z,81.50
2023-02-05T21:36:37.657Z,81.70
2023-02-05T21:39:05.273Z,81.90
2023-02-05T21:41:32.571Z,82.50
2023-02-05T21:44:01.368Z,83.10
2023-02-05T21:46:29.745Z,83.50
2023-02-05T21:48:58.375Z,83.90
2023-02-05T21:51:32.199Z,83.60
2023-02-05T21:54:01.488Z,83.70
2023-02-05T21:56:31.899Z,83.50
2023-02-05T21:58:59.114Z,83.20
2023-02-05T22:01:28.844Z,82.70
2023-02-05T22:04:00.498Z,82.70
2023-02-05T22:06:30.868Z,82.10
2023-02-05T22:09:03.849Z,82.10
2023-02-05T22:11:31.505Z,81.70
2023-02-05T22:13:59.052Z,82.70
2023-02-05T22:16:30.271Z,82.50
2023-02-05T22:18:59.577Z,82.10
2023-02-05T22:21:33.097Z,82.10
2023-02-05T22:24:04.867Z,82.40
2023-02-05T22:26:35.545Z,82.40
2023-02-05T22:29:06.181Z,83.00
2023-02-05T22:31:34.182Z,83.50
2023-02-05T22:34:01.398Z,82.90
2023-02-05T22:36:30.869Z,82.70
2023-02-05T22:38:59.078Z,83.00
2023-02-05T22:41:32.758Z,83.00
2023-02-05T22:44:01.916Z,82.30
2023-02-05T22:46:31.894Z,82.60
2023-02-05T22:49:01.059Z,82.80
2023-02-05T22:51:32.044Z,82.60
2023-02-05T22:53:59.545Z,82.60
2023-02-05T22:56:27.477Z,82.90
2023-02-05T22:58:55.771Z,82.40
2023-02-05T23:01:25.765Z,82.80
2023-02-05T23:03:53.436Z,83.20
2023-02-05T23:06:32.164Z,82.40
2023-02-05T23:09:02.027Z,82.40
2023-02-05T23:11:31.392Z,83.20
2023-02-05T23:14:00.217Z,83.90
2023-02-05T23:16:31.178Z,84.40
2023-02-05T23:19:01.480Z,84.50
2023-02-05T23:21:31.502Z,84.40
2023-02-05T23:23:59.160Z,84.50
2023-02-05T23:26:31.272Z,84.10
2023-02-05T23:28:59.053Z,84.80
2023-02-05T23:31:26.836Z,85.40
2023-02-05T23:33:54.113Z,85.30
2023-02-05T23:36:22.014Z,84.50
2023-02-05T23:38:49.515Z,84.10
2023-02-05T23:41:35.408Z,84.90
2023-02-05T23:44:02.967Z,84.30
2023-02-05T23:46:30.288Z,83.60
2023-02-05T23:48:57.594Z,83.40
2023-02-05T23:51:25.258Z,83.70
2023-02-05T23:53:52.605Z,83.20
2023-02-05T23:56:19.846Z,83.60
2023-02-05T23:58:47.267Z,84.30
